Time;durP1;ratioP1;P1;durP2;ratioP2;P2;SDS_P1;SDS_P2;PMS_P1;PMS_P2;Temp;Humidity;BMP_temperature;BMP_pressure;BME280_temperature;BME280_humidity;BME280_pressure;Samples;Min_cycle;Max_cycle;Signal;HPM_P1;HPM_P2
2021/03/23 00:01:22;;;;;;;27.42;16.38;;;23.70;36.00;;;;;;5063671;28;47240;-55
2021/03/23 00:03:49;;;;;;;25.98;16.02;;;23.70;36.00;;;;;;5078488;28;45708;-55
2021/03/23 00:06:17;;;;;;;26.25;17.55;;;23.70;36.00;;;;;;5056433;28;45256;-54
2021/03/23 00:08:45;;;;;;;23.85;15.95;;;23.70;36.00;;;;;;5073357;27;45392;-55
2021/03/23 00:11:14;;;;;;;22.50;14.25;;;23.70;36.10;;;;;;5065713;28;45461;-54
2021/03/23 00:13:41;;;;;;;23.52;15.35;;;23.70;36.10;;;;;;5066499;28;45326;-56
2021/03/23 00:16:07;;;;;;;25.63;15.45;;;23.70;36.10;;;;;;5065367;28;45204;-54
2021/03/23 00:18:33;;;;;;;21.85;14.57;;;23.70;36.10;;;;;;5048335;28;45420;-56
2021/03/23 00:20:59;;;;;;;23.25;14.70;;;23.70;36.10;;;;;;5048227;28;45357;-55
2021/03/23 00:23:24;;;;;;;23.33;14.50;;;23.70;36.10;;;;;;5028582;28;45482;-57
2021/03/23 00:25:50;;;;;;;22.83;14.95;;;23.60;36.10;;;;;;5050257;28;45397;-56
2021/03/23 00:28:16;;;;;;;21.48;14.48;;;23.60;36.10;;;;;;5049189;28;45380;-55
2021/03/23 00:30:41;;;;;;;19.95;13.75;;;23.60;36.00;;;;;;5048014;28;46630;-55
2021/03/23 00:33:07;;;;;;;21.77;13.55;;;23.60;36.10;;;;;;5047788;28;45359;-55
2021/03/23 00:35:34;;;;;;;22.65;14.30;;;23.60;36.10;;;;;;5048012;28;45379;-56
2021/03/23 00:38:01;;;;;;;21.45;14.45;;;23.60;36.10;;;;;;5051297;28;45530;-56
2021/03/23 00:40:29;;;;;;;22.05;14.43;;;23.60;36.10;;;;;;5068387;28;47031;-54
2021/03/23 00:42:55;;;;;;;21.83;13.52;;;23.60;36.70;;;;;;5059639;28;45403;-55
2021/03/23 00:45:21;;;;;;;21.48;12.85;;;23.60;36.10;;;;;;5032065;28;45338;-56
2021/03/23 00:47:47;;;;;;;21.15;13.30;;;23.50;36.00;;;;;;5046563;28;45334;-55
2021/03/23 00:50:13;;;;;;;20.65;13.63;;;23.60;36.10;;;;;;5050582;28;46354;-55
2021/03/23 00:52:38;;;;;;;20.25;13.75;;;23.60;36.20;;;;;;5031475;28;45333;-54
2021/03/23 00:55:05;;;;;;;21.85;13.05;;;23.50;36.10;;;;;;5031482;28;45432;-55
2021/03/23 00:57:30;;;;;;;20.75;12.30;;;23.50;36.10;;;;;;5031689;28;45586;-60
2021/03/23 00:59:56;;;;;;;19.05;12.52;;;23.50;36.10;;;;;;5042932;28;47173;-55
2021/03/23 01:02:22;;;;;;;19.42;12.70;;;23.50;36.10;;;;;;5051512;28;45386;-56
2021/03/23 01:04:47;;;;;;;17.58;11.85;;;23.50;36.10;;;;;;5033660;28;45450;-56
2021/03/23 01:07:13;;;;;;;19.55;13.25;;;23.50;36.10;;;;;;5034726;28;45149;-55
2021/03/23 01:09:39;;;;;;;18.42;12.52;;;23.50;36.10;;;;;;5050964;28;45278;-55
2021/03/23 01:12:07;;;;;;;20.38;12.88;;;23.50;36.10;;;;;;5041989;28;45343;-56
2021/03/23 01:14:33;;;;;;;20.30;11.50;;;23.50;36.10;;;;;;5031751;28;45394;-56
2021/03/23 01:16:59;;;;;;;20.52;13.70;;;23.50;36.10;;;;;;5043137;28;45399;-55
2021/03/23 01:19:24;;;;;;;18.38;12.35;;;23.40;36.00;;;;;;5050821;28;45354;-55
2021/03/23 01:21:50;;;;;;;19.17;12.00;;;23.50;36.10;;;;;;5048759;28;45584;-55
2021/03/23 01:24:15;;;;;;;18.23;11.75;;;23.40;36.00;;;;;;5051398;28;45300;-56
2021/03/23 01:26:41;;;;;;;18.45;12.23;;;23.40;36.10;;;;;;5038527;28;45598;-55
2021/03/23 01:29:07;;;;;;;18.92;12.52;;;23.40;36.00;;;;;;5030816;28;47180;-57
2021/03/23 01:31:32;;;;;;;18.15;11.38;;;23.40;36.00;;;;;;5030677;28;45445;-56
2021/03/23 01:33:58;;;;;;;17.02;11.18;;;23.40;36.00;;;;;;5047401;28;45253;-56
2021/03/23 01:36:24;;;;;;;15.05;10.95;;;23.40;36.00;;;;;;5049521;28;45639;-55
2021/03/23 01:38:49;;;;;;;17.92;11.93;;;23.40;36.00;;;;;;5048563;28;45251;-55
2021/03/23 01:41:15;;;;;;;15.27;10.43;;;23.40;36.00;;;;;;5050888;28;45355;-55
2021/03/23 01:43:40;;;;;;;17.05;10.45;;;23.40;36.00;;;;;;5035385;28;45357;-55
2021/03/23 01:46:33;;;;;;;15.10;10.70;;;23.40;36.10;;;;;;5047547;28;45823;-55
2021/03/23 01:48:59;;;;;;;17.27;10.70;;;23.40;36.00;;;;;;5047145;28;46976;-55
2021/03/23 01:51:25;;;;;;;15.73;10.63;;;23.30;36.00;;;;;;5037185;28;45378;-55
2021/03/23 01:53:54;;;;;;;16.27;10.18;;;23.30;36.00;;;;;;5047318;28;45414;-55
2021/03/23 01:56:20;;;;;;;14.30;10.18;;;23.40;36.00;;;;;;5050932;28;45533;-56
2021/03/23 01:58:47;;;;;;;16.52;11.18;;;23.30;36.00;;;;;;5049863;28;47004;-56
2021/03/23 02:01:13;;;;;;;16.10;10.23;;;23.30;36.00;;;;;;5050651;28;45370;-56
2021/03/23 02:03:39;;;;;;;14.95;9.43;;;23.30;36.00;;;;;;5050490;28;45246;-55
2021/03/23 02:06:05;;;;;;;16.20;10.25;;;23.30;35.90;;;;;;5051202;28;45603;-56
2021/03/23 02:08:31;;;;;;;14.77;10.25;;;23.30;35.90;;;;;;5052335;28;46220;-56
2021/03/23 02:10:57;;;;;;;15.43;10.05;;;23.30;35.90;;;;;;5047028;28;45347;-56
2021/03/23 02:13:23;;;;;;;14.60;8.55;;;23.30;35.90;;;;;;5030324;28;45384;-57
2021/03/23 02:15:49;;;;;;;14.50;9.52;;;23.20;35.90;;;;;;5030315;28;45514;-55
2021/03/23 02:18:23;;;;;;;15.75;9.73;;;23.30;35.90;;;;;;5058705;28;46993;-56
2021/03/23 02:21:12;;;;;;;15.07;9.77;;;23.30;35.90;;;;;;5068464;28;45319;-56
2021/03/23 02:23:43;;;;;;;15.55;9.20;;;23.30;35.90;;;;;;5048413;28;45403;-56
2021/03/23 02:26:11;;;;;;;15.07;9.30;;;23.30;35.90;;;;;;5048594;28;45581;-56
2021/03/23 02:28:51;;;;;;;15.15;10.02;;;23.20;35.90;;;;;;5046711;28;47193;-56
2021/03/23 02:31:20;;;;;;;13.38;9.15;;;23.20;35.80;;;;;;5048316;28;45478;-56
2021/03/23 02:33:45;;;;;;;14.65;9.27;;;23.20;35.80;;;;;;5047907;28;45361;-56
2021/03/23 02:36:11;;;;;;;12.18;7.38;;;23.20;35.80;;;;;;5030887;28;45438;-57
2021/03/23 02:38:37;;;;;;;16.08;10.15;;;23.20;35.80;;;;;;5039895;28;45688;-57
2021/03/23 02:41:02;;;;;;;14.18;9.00;;;23.20;35.80;;;;;;5049363;28;45456;-56
2021/03/23 02:43:28;;;;;;;13.80;8.95;;;23.20;35.80;;;;;;5066922;28;45375;-57
2021/03/23 02:45:55;;;;;;;15.45;9.48;;;23.20;35.80;;;;;;5067644;28;45616;-56
2021/03/23 02:48:21;;;;;;;12.80;7.95;;;23.20;35.80;;;;;;5067842;28;45380;-56
2021/03/23 02:50:46;;;;;;;14.80;9.15;;;23.20;35.80;;;;;;5049867;28;45351;-57
2021/03/23 02:53:12;;;;;;;13.15;8.52;;;23.20;35.80;;;;;;5049909;28;45404;-56
2021/03/23 02:55:38;;;;;;;13.07;8.52;;;23.20;35.80;;;;;;5050667;28;45315;-55
2021/03/23 02:58:04;;;;;;;13.13;8.50;;;23.10;35.80;;;;;;5049044;28;46419;-55
2021/03/23 03:00:30;;;;;;;14.50;8.02;;;23.10;35.80;;;;;;5049765;28;45331;-56
2021/03/23 03:02:56;;;;;;;13.70;8.82;;;23.20;35.80;;;;;;5049792;28;45339;-55
2021/03/23 03:05:21;;;;;;;12.43;8.00;;;23.10;35.70;;;;;;5050145;28;45481;-55
2021/03/23 03:07:47;;;;;;;11.68;7.82;;;23.10;35.70;;;;;;5066350;28;46112;-55
2021/03/23 03:10:13;;;;;;;12.43;8.45;;;23.10;35.70;;;;;;5049884;28;45367;-55
2021/03/23 03:12:38;;;;;;;12.00;7.80;;;23.10;35.70;;;;;;5049472;28;45327;-56
2021/03/23 03:15:05;;;;;;;13.35;8.60;;;23.20;35.90;;;;;;5050144;28;45235;-56
2021/03/23 03:17:30;;;;;;;13.70;8.82;;;23.20;36.00;;;;;;5043288;28;46292;-56
2021/03/23 03:19:56;;;;;;;12.15;7.80;;;23.20;36.10;;;;;;5029891;28;45241;-56
2021/03/23 03:22:22;;;;;;;11.82;8.07;;;23.20;36.10;;;;;;5045636;28;45390;-56
2021/03/23 03:24:47;;;;;;;12.38;7.95;;;23.20;36.10;;;;;;5046476;28;45521;-56
2021/03/23 03:27:13;;;;;;;11.50;7.15;;;23.30;36.10;;;;;;5045788;28;45892;-56
2021/03/23 03:29:39;;;;;;;12.13;8.32;;;23.30;36.10;;;;;;5045531;28;45374;-56
2021/03/23 03:32:05;;;;;;;10.43;7.15;;;23.30;36.10;;;;;;5046142;28;45472;-56
2021/03/23 03:34:30;;;;;;;11.30;7.45;;;23.30;36.10;;;;;;5046083;28;45733;-57
2021/03/23 03:36:56;;;;;;;13.88;7.70;;;23.30;36.10;;;;;;5045596;28;47576;-57
2021/03/23 03:39:22;;;;;;;11.55;7.97;;;23.40;36.10;;;;;;5047968;28;45336;-56
2021/03/23 03:41:47;;;;;;;10.63;7.40;;;23.40;36.10;;;;;;5046114;28;45378;-57
2021/03/23 03:44:13;;;;;;;10.35;7.05;;;23.40;36.00;;;;;;5046042;28;45291;-56
2021/03/23 03:46:39;;;;;;;10.55;7.13;;;23.40;36.00;;;;;;5045020;28;45377;-60
2021/03/23 03:49:04;;;;;;;10.75;6.90;;;23.50;36.00;;;;;;5045721;28;45398;-58
2021/03/23 03:51:30;;;;;;;10.68;6.95;;;23.50;35.90;;;;;;5029009;28;45328;-56
2021/03/23 03:53:55;;;;;;;10.32;6.68;;;23.50;35.90;;;;;;5029241;28;45407;-59
2021/03/23 03:56:21;;;;;;;13.40;7.50;;;23.50;35.80;;;;;;5028774;28;46482;-57
2021/03/23 03:58:47;;;;;;;10.45;6.97;;;23.50;35.80;;;;;;5030300;28;45470;-56
2021/03/23 04:01:12;;;;;;;10.60;6.60;;;23.50;35.80;;;;;;5048848;28;45257;-56
2021/03/23 04:03:38;;;;;;;10.65;6.63;;;23.50;35.80;;;;;;5041181;28;45350;-56
2021/03/23 04:06:04;;;;;;;10.25;6.53;;;23.60;35.80;;;;;;5045342;28;46440;-57
2021/03/23 04:08:31;;;;;;;11.30;6.80;;;23.60;35.80;;;;;;5045103;28;45401;-56
2021/03/23 04:10:58;;;;;;;11.35;7.03;;;23.60;35.70;;;;;;5045854;28;45533;-55
2021/03/23 04:13:23;;;;;;;10.98;6.82;;;23.60;35.70;;;;;;5049115;28;45689;-56
2021/03/23 04:15:49;;;;;;;12.60;6.63;;;23.60;35.60;;;;;;5037343;28;46506;-56
2021/03/23 04:18:17;;;;;;;10.07;7.00;;;23.70;35.60;;;;;;5067549;28;45473;-56
2021/03/23 04:20:42;;;;;;;10.02;5.97;;;23.70;35.60;;;;;;5069204;28;45305;-56
2021/03/23 04:23:19;;;;;;;10.57;6.82;;;23.70;35.60;;;;;;5033232;28;45501;-55
2021/03/23 04:25:45;;;;;;;10.13;6.47;;;23.70;35.60;;;;;;5054611;28;45384;-55
2021/03/23 04:28:10;;;;;;;9.70;6.28;;;23.70;35.60;;;;;;5052328;28;45328;-55
2021/03/23 04:30:36;;;;;;;10.18;7.10;;;23.70;35.50;;;;;;5040237;28;45403;-55
2021/03/23 04:33:01;;;;;;;9.30;5.97;;;23.70;35.50;;;;;;5032649;28;45588;-55
2021/03/23 04:35:47;;;;;;;9.77;5.65;;;23.70;35.40;;;;;;5031527;28;45919;-55
2021/03/23 04:38:16;;;;;;;11.15;6.70;;;23.80;35.40;;;;;;5050007;28;45682;-56
2021/03/23 04:40:41;;;;;;;8.68;5.43;;;23.80;35.50;;;;;;5048599;28;45323;-55
2021/03/23 04:43:07;;;;;;;10.43;6.40;;;23.80;35.50;;;;;;5048882;28;45375;-55
2021/03/23 04:45:33;;;;;;;7.97;5.40;;;23.80;35.40;;;;;;5031974;28;46529;-56
2021/03/23 04:47:59;;;;;;;9.60;6.38;;;23.80;35.40;;;;;;5058530;28;45443;-56
2021/03/23 04:50:24;;;;;;;8.90;5.70;;;23.80;35.40;;;;;;5051424;28;45383;-55
2021/03/23 04:52:50;;;;;;;10.15;6.43;;;23.90;35.40;;;;;;5069278;28;45647;-57
2021/03/23 04:55:16;;;;;;;10.70;6.63;;;23.80;35.30;;;;;;5051507;28;46118;-56
2021/03/23 04:57:42;;;;;;;9.38;5.78;;;23.90;35.30;;;;;;5051245;28;45284;-56
2021/03/23 05:00:09;;;;;;;9.27;5.45;;;23.90;35.30;;;;;;5037251;28;45346;-56
2021/03/23 05:02:35;;;;;;;9.80;6.00;;;23.90;35.30;;;;;;5051844;28;45324;-57
2021/03/23 05:05:00;;;;;;;7.93;5.28;;;23.90;35.20;;;;;;5051167;28;47129;-56
2021/03/23 05:07:26;;;;;;;9.75;5.75;;;23.90;35.20;;;;;;5044997;28;45332;-56
2021/03/23 05:09:51;;;;;;;8.98;5.10;;;23.90;35.20;;;;;;5031662;28;45304;-56
2021/03/23 05:12:17;;;;;;;9.38;5.57;;;23.90;35.20;;;;;;5043680;28;45357;-55
2021/03/23 05:14:43;;;;;;;7.75;5.20;;;23.90;35.20;;;;;;5050365;28;45375;-56
2021/03/23 05:17:09;;;;;;;8.73;5.20;;;23.90;35.10;;;;;;5049804;28;45411;-56
2021/03/23 05:19:35;;;;;;;8.23;5.57;;;23.90;35.10;;;;;;5051581;28;45326;-57
2021/03/23 05:22:00;;;;;;;7.90;5.47;;;24.00;35.20;;;;;;5041381;28;45663;-56
2021/03/23 05:24:26;;;;;;;9.65;5.63;;;24.00;35.10;;;;;;5046782;28;46182;-57
2021/03/23 05:26:51;;;;;;;9.85;5.50;;;24.00;35.10;;;;;;5047852;28;45443;-56
2021/03/23 05:29:17;;;;;;;9.23;5.32;;;24.00;35.60;;;;;;5048331;28;45621;-57
2021/03/23 05:31:43;;;;;;;8.35;5.18;;;24.00;35.10;;;;;;5051752;28;45507;-56
2021/03/23 05:34:10;;;;;;;9.68;5.43;;;24.10;35.10;;;;;;5044082;28;47056;-56
2021/03/23 05:36:37;;;;;;;9.65;5.45;;;24.00;35.30;;;;;;5031108;28;45469;-57
2021/03/23 05:39:03;;;;;;;12.77;6.85;;;24.00;35.10;;;;;;5031539;28;45451;-56
2021/03/23 05:41:44;;;;;;;12.32;7.10;;;24.10;34.80;;;;;;5048119;28;45564;-56
2021/03/23 05:44:09;;;;;;;11.35;6.85;;;24.10;34.30;;;;;;5047356;28;46171;-56
2021/03/23 05:46:37;;;;;;;13.02;7.65;;;24.10;34.40;;;;;;5048493;28;45418;-56
2021/03/23 05:49:32;;;;;;;14.02;8.07;;;24.10;33.70;;;;;;5047534;28;45325;-56
2021/03/23 05:52:24;;;;;;;14.98;8.25;;;24.10;33.20;;;;;;5062179;28;45375;-56
2021/03/23 05:55:00;;;;;;;14.60;8.35;;;24.20;33.50;;;;;;5064881;28;46409;-57
2021/03/23 05:57:38;;;;;;;14.07;7.70;;;24.20;33.20;;;;;;5047190;28;45485;-56
2021/03/23 06:00:33;;;;;;;13.55;7.80;;;24.20;32.80;;;;;;5047186;28;45333;-56
2021/03/23 06:03:20;;;;;;;14.27;8.38;;;24.20;32.70;;;;;;5049028;28;45316;-55
2021/03/23 06:05:50;;;;;;;12.90;7.90;;;24.20;32.20;;;;;;5048628;28;45372;-57
2021/03/23 06:08:24;;;;;;;14.73;8.32;;;24.10;32.60;;;;;;5046959;28;45316;-56
2021/03/23 06:10:52;;;;;;;13.43;8.90;;;24.20;32.50;;;;;;5047671;28;45410;-57
2021/03/23 06:13:31;;;;;;;14.35;8.25;;;24.20;32.40;;;;;;5034612;28;45477;-57
2021/03/23 06:16:12;;;;;;;14.52;9.38;;;24.20;32.30;;;;;;5053331;28;46385;-56
2021/03/23 06:19:22;;;;;;;15.95;9.45;;;24.20;32.20;;;;;;5066606;28;45292;-56
2021/03/23 06:21:54;;;;;;;15.38;9.60;;;24.20;31.50;;;;;;5055278;28;45592;-56
2021/03/23 06:24:47;;;;;;;15.23;10.43;;;24.20;31.90;;;;;;5044397;28;45569;-56
2021/03/23 06:27:20;;;;;;;16.05;10.20;;;24.30;31.70;;;;;;5043127;28;47112;-56
2021/03/23 06:30:06;;;;;;;15.82;10.60;;;24.30;31.70;;;;;;5047746;28;45340;-56
2021/03/23 06:32:40;;;;;;;12.85;9.35;;;24.30;31.60;;;;;;5051539;28;45465;-56
2021/03/23 06:35:07;;;;;;;15.98;9.40;;;24.30;31.60;;;;;;5053010;28;45472;-56
2021/03/23 06:37:37;;;;;;;13.02;9.43;;;24.30;31.50;;;;;;5047833;28;47088;-56
2021/03/23 06:40:17;;;;;;;14.40;9.52;;;24.40;31.30;;;;;;5030092;28;45331;-57
2021/03/23 06:42:45;;;;;;;17.20;10.90;;;24.40;29.90;;;;;;5050444;28;45367;-56
2021/03/23 06:45:25;;;;;;;14.90;10.63;;;24.30;29.30;;;;;;5056238;28;45625;-56
2021/03/23 06:47:51;;;;;;;16.02;10.48;;;24.30;28.90;;;;;;5054597;28;46557;-57
2021/03/23 06:50:25;;;;;;;16.83;9.73;;;24.30;29.20;;;;;;5046117;28;45264;-56
2021/03/23 06:53:05;;;;;;;18.50;10.03;;;24.30;29.10;;;;;;5047961;28;45364;-56
2021/03/23 06:55:31;;;;;;;13.63;9.15;;;24.30;29.10;;;;;;5048231;28;45508;-56
2021/03/23 06:57:56;;;;;;;15.30;10.15;;;24.30;29.30;;;;;;5051849;28;47120;-54
2021/03/23 07:00:34;;;;;;;13.77;9.52;;;24.20;29.40;;;;;;5040482;28;45661;-55
2021/03/23 07:03:39;;;;;;;15.70;10.07;;;24.30;29.00;;;;;;5052501;28;45572;-54
2021/03/23 07:06:28;;;;;;;19.48;9.52;;;24.20;29.80;;;;;;5036744;28;45248;-55
2021/03/23 07:09:18;;;;;;;17.70;10.77;;;24.30;30.40;;;;;;5055577;28;46907;-54
2021/03/23 07:12:01;;;;;;;16.20;9.65;;;24.30;31.90;;;;;;5041709;28;45552;-53
2021/03/23 07:14:34;;;;;;;13.80;8.52;;;24.40;31.30;;;;;;5055487;28;45205;-53
2021/03/23 07:17:26;;;;;;;13.52;8.68;;;24.50;31.00;;;;;;5067864;28;45346;-52
2021/03/23 07:19:56;;;;;;;11.88;8.02;;;24.60;31.00;;;;;;5063801;28;47504;-53
2021/03/23 07:22:27;;;;;;;10.52;7.20;;;24.60;31.20;;;;;;5047239;28;45268;-53
2021/03/23 07:24:55;;;;;;;11.65;7.78;;;24.70;31.30;;;;;;5047655;28;45358;-53
2021/03/23 07:27:21;;;;;;;12.23;7.88;;;24.80;31.40;;;;;;5047510;28;45434;-53
2021/03/23 07:29:47;;;;;;;10.23;7.40;;;24.90;31.50;;;;;;5033505;28;48620;-53
2021/03/23 07:32:41;;;;;;;13.07;7.85;;;25.00;31.50;;;;;;5021805;28;46159;-54
2021/03/23 07:35:25;;;;;;;11.80;7.65;;;25.00;31.50;;;;;;5051475;28;45326;-53
2021/03/23 07:38:05;;;;;;;10.45;6.70;;;25.10;31.60;;;;;;5049412;28;45427;-55
2021/03/23 07:40:39;;;;;;;15.63;8.20;;;25.10;31.80;;;;;;5047526;28;46387;-55
2021/03/23 07:43:05;;;;;;;8.80;6.43;;;25.20;31.90;;;;;;5057423;28;45384;-55
2021/03/23 07:45:58;;;;;;;12.30;7.32;;;25.20;32.00;;;;;;5064137;28;45398;-58
2021/03/23 07:48:50;;;;;;;11.85;7.88;;;25.20;32.60;;;;;;5051886;28;45300;-59
2021/03/23 07:51:29;;;;;;;13.10;7.20;;;25.20;32.10;;;;;;5061797;28;47145;-54
2021/03/23 07:54:00;;;;;;;12.60;7.18;;;25.30;32.20;;;;;;5075828;28;45415;-55
2021/03/23 07:56:59;;;;;;;11.77;7.43;;;25.30;32.30;;;;;;5081478;28;45265;-55
2021/03/23 07:59:44;;;;;;;11.05;6.68;;;25.40;32.40;;;;;;5064305;28;45676;-55
2021/03/23 08:02:54;;;;;;;9.55;6.00;;;25.40;32.40;;;;;;5072207;28;45805;-63
2021/03/23 08:06:01;;;;;;;13.80;6.22;;;25.50;32.90;;;;;;5064120;28;45578;-62
2021/03/23 08:09:03;;;;;;;9.98;6.75;;;25.50;32.90;;;;;;5009754;28;45657;-55
2021/03/23 08:11:54;;;;;;;10.02;6.05;;;25.60;33.50;;;;;;5023869;28;45510;-68
2021/03/23 08:14:50;;;;;;;12.05;7.00;;;25.70;33.70;;;;;;5071872;28;46237;-67
2021/03/23 08:17:22;;;;;;;10.57;5.47;;;25.80;34.90;;;;;;5067027;28;45489;-68
2021/03/23 08:20:19;;;;;;;9.55;5.88;;;25.90;34.80;;;;;;5068596;28;45363;-65
2021/03/23 08:22:50;;;;;;;9.95;6.32;;;26.00;35.00;;;;;;5072816;28;45347;-62
2021/03/23 08:25:41;;;;;;;17.88;6.68;;;26.10;35.00;;;;;;5074280;27;46158;-65
2021/03/23 08:28:17;;;;;;;10.65;6.38;;;26.10;34.80;;;;;;5071896;28;45591;-65
2021/03/23 08:31:13;;;;;;;12.82;5.97;;;26.20;35.30;;;;;;5074492;28;45400;-63
2021/03/23 08:33:54;;;;;;;11.23;6.35;;;26.30;34.60;;;;;;5067757;28;46094;-67
2021/03/23 08:36:56;;;;;;;7.60;5.28;;;26.40;34.80;;;;;;5071113;28;45405;-63
2021/03/23 08:39:25;;;;;;;12.32;5.82;;;26.40;34.80;;;;;;5071600;28;45407;-54
2021/03/23 08:42:00;;;;;;;10.55;5.70;;;26.40;34.30;;;;;;5070844;28;45460;-62
2021/03/23 08:44:55;;;;;;;7.50;4.75;;;26.40;34.20;;;;;;5070405;28;45583;-64
2021/03/23 08:47:20;;;;;;;8.48;5.05;;;26.40;34.20;;;;;;5066559;28;46200;-65
2021/03/23 08:49:46;;;;;;;8.93;5.75;;;26.50;34.30;;;;;;5074719;27;45676;-75
2021/03/23 08:52:31;;;;;;;33.60;6.85;;;26.50;34.20;;;;;;5054499;28;45553;-73
2021/03/23 08:54:58;;;;;;;14.32;5.80;;;26.50;34.60;;;;;;5076978;28;45447;-62
2021/03/23 08:57:24;;;;;;;13.75;5.45;;;26.60;34.80;;;;;;5062903;28;46170;-57
2021/03/23 08:59:51;;;;;;;10.60;5.10;;;26.60;34.60;;;;;;5058965;28;45459;-59
2021/03/23 09:02:35;;;;;;;50.25;6.95;;;26.80;34.80;;;;;;5074630;28;45369;-58
2021/03/23 09:05:02;;;;;;;8.82;5.00;;;26.80;34.20;;;;;;5076089;28;45314;-60
2021/03/23 09:07:32;;;;;;;11.85;6.05;;;26.80;34.50;;;;;;5053698;28;46388;-61
2021/03/23 09:09:58;;;;;;;11.07;5.15;;;26.80;34.30;;;;;;5054412;28;45458;-60
2021/03/23 09:12:41;;;;;;;9.88;4.35;;;26.80;34.40;;;;;;5056627;28;45458;-56
2021/03/23 09:15:15;;;;;;;9.55;4.85;;;26.80;34.50;;;;;;5070533;28;45500;-58
2021/03/23 09:18:05;;;;;;;8.82;5.00;;;26.70;32.90;;;;;;5069396;28;46262;-59
2021/03/23 09:20:31;;;;;;;9.30;4.82;;;26.60;31.90;;;;;;5072703;28;45440;-57
2021/03/23 09:23:20;;;;;;;7.15;4.50;;;26.60;31.80;;;;;;5073993;28;45398;-58
2021/03/23 09:26:02;;;;;;;9.88;5.05;;;26.50;30.50;;;;;;5073648;27;45789;-58
2021/03/23 09:29:13;;;;;;;8.73;5.45;;;26.50;31.00;;;;;;5071035;28;47329;-58
2021/03/23 09:31:25;;;;;;;7.03;5.00;;;26.40;30.60;;;;;;5065224;28;45637;-58
2021/03/23 09:33:55;;;;;;;9.15;5.20;;;26.40;30.70;;;;;;5070658;28;45483;-62
2021/03/23 09:36:35;;;;;;;7.65;4.43;;;26.30;31.20;;;;;;5056840;28;45367;-66
2021/03/23 09:39:34;;;;;;;6.07;3.83;;;26.40;31.30;;;;;;5071171;28;45991;-68
2021/03/23 09:42:21;;;;;;;7.45;4.25;;;26.30;31.40;;;;;;5057792;28;45800;-65
2021/03/23 09:45:10;;;;;;;7.45;4.32;;;26.40;31.70;;;;;;5069430;28;45386;-64
2021/03/23 09:48:02;;;;;;;7.20;4.30;;;26.40;31.90;;;;;;5071469;28;45596;-62
2021/03/23 09:50:43;;;;;;;7.25;3.83;;;26.40;32.10;;;;;;5070986;28;46580;-63
2021/03/23 09:53:25;;;;;;;8.15;3.97;;;26.40;32.20;;;;;;5052025;28;45416;-63
2021/03/23 09:55:50;;;;;;;10.15;3.28;;;26.40;32.30;;;;;;5075251;28;45522;-66
2021/03/23 09:58:26;;;;;;;7.90;4.13;;;26.40;32.60;;;;;;5053220;28;45505;-70
2021/03/23 10:00:52;;;;;;;6.82;4.25;;;26.50;32.60;;;;;;5072993;28;47218;-65
2021/03/23 10:03:35;;;;;;;7.63;3.67;;;26.50;33.20;;;;;;5056351;28;45419;-60
2021/03/23 10:06:05;;;;;;;6.72;3.95;;;26.50;33.00;;;;;;5072948;27;45527;-58
2021/03/23 10:08:33;;;;;;;8.73;5.20;;;26.60;33.50;;;;;;5071498;28;45483;-58
2021/03/23 10:11:13;;;;;;;8.93;4.75;;;26.50;32.00;;;;;;5072449;28;46277;-58
2021/03/23 10:13:45;;;;;;;7.88;4.80;;;26.40;31.20;;;;;;5074647;28;45595;-59
2021/03/23 10:16:28;;;;;;;8.77;4.82;;;26.30;30.70;;;;;;5070619;28;45430;-58
2021/03/23 10:18:54;;;;;;;7.35;5.00;;;26.30;27.90;;;;;;5069545;28;45593;-59
2021/03/23 10:21:25;;;;;;;6.80;4.00;;;26.10;27.70;;;;;;5062476;28;47055;-59
2021/03/23 10:23:57;;;;;;;7.78;3.45;;;26.10;26.70;;;;;;5066558;28;45603;-59
2021/03/23 10:26:34;;;;;;;6.47;3.40;;;26.00;26.00;;;;;;5068022;28;45394;-59
2021/03/23 10:29:19;;;;;;;6.20;3.83;;;25.90;26.60;;;;;;5066143;28;45454;-59
2021/03/23 10:31:51;;;;;;;6.28;3.35;;;25.90;25.50;;;;;;5033166;28;48462;-58
2021/03/23 10:35:01;;;;;;;6.05;3.25;;;25.80;26.20;;;;;;5044590;28;45495;-59
2021/03/23 10:37:28;;;;;;;8.90;3.00;;;25.80;25.50;;;;;;5047537;28;45415;-59
2021/03/23 10:39:54;;;;;;;8.90;3.83;;;25.70;27.60;;;;;;5056333;28;45459;-58
2021/03/23 10:42:25;;;;;;;12.25;4.18;;;25.70;29.40;;;;;;5035769;28;47581;-59
2021/03/23 10:45:09;;;;;;;5.68;3.53;;;25.60;29.00;;;;;;5054414;28;45433;-62
2021/03/23 10:47:39;;;;;;;7.60;3.35;;;25.60;29.20;;;;;;5069577;28;46300;-60
2021/03/23 10:50:14;;;;;;;4.93;2.90;;;25.60;29.40;;;;;;5055314;28;45458;-58
2021/03/23 10:52:40;;;;;;;8.57;3.78;;;25.50;29.80;;;;;;5052309;28;47190;-55
2021/03/23 10:55:16;;;;;;;7.10;4.28;;;25.50;30.60;;;;;;5043599;28;45862;-54
2021/03/23 10:57:41;;;;;;;8.65;3.50;;;25.50;31.90;;;;;;5066675;28;45418;-54
2021/03/23 11:00:28;;;;;;;8.15;3.53;;;25.40;32.30;;;;;;5052418;28;45402;-59
2021/03/23 11:02:54;;;;;;;7.57;3.65;;;25.40;33.50;;;;;;5072662;28;47126;-57
2021/03/23 11:05:22;;;;;;;6.43;3.58;;;25.40;32.20;;;;;;5054036;28;46304;-53
2021/03/23 11:07:50;;;;;;;5.10;3.55;;;25.40;32.20;;;;;;5072671;28;45429;-62
2021/03/23 11:10:18;;;;;;;8.95;4.03;;;25.40;31.90;;;;;;5074539;28;45528;-58
2021/03/23 11:12:43;;;;;;;7.13;3.95;;;25.40;31.80;;;;;;5054264;28;46544;-59
2021/03/23 11:15:10;;;;;;;6.18;3.50;;;25.40;31.80;;;;;;5054723;28;46262;-59
2021/03/23 11:17:37;;;;;;;6.55;3.28;;;25.30;31.70;;;;;;5052369;28;45931;-59
2021/03/23 11:20:08;;;;;;;5.53;3.28;;;25.30;31.80;;;;;;5056448;27;45730;-58
2021/03/23 11:22:35;;;;;;;6.75;2.65;;;25.30;31.80;;;;;;5070549;28;46021;-63
2021/03/23 11:25:01;;;;;;;5.07;3.13;;;25.30;31.80;;;;;;5051903;28;45429;-64
2021/03/23 11:27:27;;;;;;;6.32;3.17;;;25.30;31.80;;;;;;5055875;28;45467;-64
2021/03/23 11:29:57;;;;;;;5.03;2.83;;;25.30;31.80;;;;;;5056178;28;45668;-64
2021/03/23 11:32:23;;;;;;;6.40;3.22;;;25.30;31.90;;;;;;5070842;28;45729;-66
2021/03/23 11:34:49;;;;;;;5.80;3.40;;;25.30;31.90;;;;;;5055947;28;45407;-62
2021/03/23 11:37:15;;;;;;;5.20;3.05;;;25.30;31.90;;;;;;5053766;28;45865;-61
2021/03/23 11:39:40;;;;;;;5.70;3.03;;;25.30;32.00;;;;;;5054730;28;45610;-61
2021/03/23 11:42:19;;;;;;;5.30;2.80;;;25.30;32.00;;;;;;5053121;28;47053;-62
2021/03/23 11:44:46;;;;;;;4.75;2.88;;;25.30;32.00;;;;;;5070410;28;45398;-63
2021/03/23 11:47:36;;;;;;;5.18;2.92;;;25.30;32.00;;;;;;5052307;28;45295;-61
2021/03/23 11:50:13;;;;;;;6.25;2.97;;;25.30;32.10;;;;;;5054259;28;45577;-58
2021/03/23 11:52:39;;;;;;;6.00;3.33;;;25.20;32.10;;;;;;5072751;28;46235;-59
2021/03/23 11:55:08;;;;;;;5.70;2.90;;;25.20;32.20;;;;;;5055486;28;45502;-59
2021/03/23 11:57:34;;;;;;;5.32;2.40;;;25.20;32.20;;;;;;5055702;28;45596;-60
2021/03/23 12:00:00;;;;;;;5.40;2.90;;;25.20;32.20;;;;;;5054124;28;45561;-52
2021/03/23 12:02:29;;;;;;;6.70;2.80;;;25.20;32.20;;;;;;5052455;28;47198;-52
2021/03/23 12:04:55;;;;;;;5.30;3.05;;;25.20;32.40;;;;;;5043175;28;45447;-52
2021/03/23 12:07:33;;;;;;;5.30;2.72;;;25.20;32.70;;;;;;5050938;28;45383;-50
2021/03/23 12:10:23;;;;;;;6.57;3.08;;;25.10;33.50;;;;;;5067861;28;45417;-51
2021/03/23 12:13:06;;;;;;;4.57;2.85;;;25.10;33.90;;;;;;5073377;28;45734;-54
2021/03/23 12:15:38;;;;;;;5.63;2.90;;;25.10;33.80;;;;;;5068689;28;45521;-53
2021/03/23 12:18:08;;;;;;;6.53;3.00;;;25.10;33.90;;;;;;5067820;28;45480;-52
2021/03/23 12:20:36;;;;;;;5.47;2.65;;;25.10;33.70;;;;;;5049367;28;45496;-52
2021/03/23 12:23:02;;;;;;;6.03;2.97;;;25.10;34.20;;;;;;5039470;28;47084;-53
2021/03/23 12:25:28;;;;;;;5.30;2.97;;;25.10;34.70;;;;;;5047753;28;45777;-52
2021/03/23 12:27:53;;;;;;;5.72;3.03;;;25.10;34.70;;;;;;5049571;28;45566;-53
2021/03/23 12:30:20;;;;;;;5.45;2.55;;;25.10;34.70;;;;;;5051712;28;45612;-53
2021/03/23 12:32:46;;;;;;;4.75;2.83;;;25.10;34.70;;;;;;5055647;28;46444;-53
2021/03/23 12:35:15;;;;;;;6.45;3.47;;;25.10;35.10;;;;;;5050109;28;45363;-52
2021/03/23 12:37:40;;;;;;;6.72;2.67;;;25.10;35.20;;;;;;5052027;28;45307;-52
2021/03/23 12:40:09;;;;;;;5.25;2.80;;;25.10;35.40;;;;;;5050185;28;45563;-54
2021/03/23 12:42:35;;;;;;;5.95;3.15;;;25.10;35.50;;;;;;5063622;28;46239;-52
2021/03/23 12:45:01;;;;;;;4.93;2.65;;;25.00;35.30;;;;;;5039451;28;45494;-52
2021/03/23 12:47:27;;;;;;;6.43;2.83;;;25.00;35.80;;;;;;5030945;28;45419;-52
2021/03/23 12:49:53;;;;;;;4.25;2.20;;;25.00;35.90;;;;;;5038604;28;45513;-55
2021/03/23 12:52:22;;;;;;;4.75;2.72;;;24.90;35.80;;;;;;5050950;28;45380;-56
2021/03/23 12:54:48;;;;;;;6.13;3.00;;;24.90;36.20;;;;;;5052008;28;45394;-52
2021/03/23 12:57:20;;;;;;;6.10;2.75;;;24.90;36.30;;;;;;5047306;28;45565;-55
2021/03/23 12:59:46;;;;;;;4.70;2.70;;;24.90;36.60;;;;;;5068379;28;45366;-53
2021/03/23 13:02:12;;;;;;;6.75;3.10;;;24.90;36.40;;;;;;5048115;28;47179;-59